sensor_id;sensor_type;location;lat;lon;timestamp;pressure;altitude;pressure_sealevel;temperature;humidity
74881;BME280;63427;49.654;6.596;2023-07-29T00:00:31;99055.23;;;22.43;46.09
74881;BME280;63427;49.654;6.596;2023-07-29T00:02:56;99050.91;;;22.54;46.55
74881;BME280;63427;49.654;6.596;2023-07-29T00:05:21;99046.10;;;22.40;46.53
74881;BME280;63427;49.654;6.596;2023-07-29T00:07:46;99043.48;;;22.45;46.37
74881;BME280;63427;49.654;6.596;2023-07-29T00:10:11;99039.24;;;22.65;46.85
74881;BME280;63427;49.654;6.596;2023-07-29T00:12:36;99040.39;;;22.37;46.57
74881;BME280;63427;49.654;6.596;2023-07-29T00:15:02;99037.56;;;22.26;47.01
74881;BME280;63427;49.654;6.596;2023-07-29T00:17:27;99032.52;;;22.58;47.13
74881;BME280;63427;49.654;6.596;2023-07-29T00:19:52;99032.78;;;22.38;46.57
74881;BME280;63427;49.654;6.596;2023-07-29T00:22:17;99028.86;;;22.34;46.98
74881;BME280;63427;49.654;6.596;2023-07-29T00:24:42;99025.80;;;22.65;46.59
74881;BME280;63427;49.654;6.596;2023-07-29T00:27:07;99032.63;;;22.41;46.72
74881;BME280;63427;49.654;6.596;2023-07-29T00:29:32;99028.43;;;22.56;46.93
74881;BME280;63427;49.654;6.596;2023-07-29T00:31:57;99030.62;;;22.64;47.61
74881;BME280;63427;49.654;6.596;2023-07-29T00:34:22;99031.00;;;22.37;47.11
74881;BME280;63427;49.654;6.596;2023-07-29T00:36:48;99029.82;;;22.49;47.12
74881;BME280;63427;49.654;6.596;2023-07-29T00:39:13;99030.86;;;22.44;46.68
74881;BME280;63427;49.654;6.596;2023-07-29T00:41:38;99028.94;;;22.76;46.54
74881;BME280;63427;49.654;6.596;2023-07-29T00:44:03;99026.45;;;22.77;46.75
74881;BME280;63427;49.654;6.596;2023-07-29T00:46:28;99027.90;;;22.28;46.96
74881;BME280;63427;49.654;6.596;2023-07-29T00:48:53;99028.66;;;22.46;46.77
74881;BME280;63427;49.654;6.596;2023-07-29T00:51:18;99028.92;;;22.63;46.45
74881;BME280;63427;49.654;6.596;2023-07-29T00:53:43;99028.22;;;22.39;47.66
74881;BME280;63427;49.654;6.596;2023-07-29T00:56:08;99026.98;;;22.33;47.07
74881;BME280;63427;49.654;6.596;2023-07-29T00:58:34;99032.75;;;22.47;46.75
74881;BME280;63427;49.654;6.596;2023-07-29T01:00:59;99027.93;;;22.68;47.01
74881;BME280;63427;49.654;6.596;2023-07-29T01:03:24;99027.72;;;22.39;46.72
74881;BME280;63427;49.654;6.596;2023-07-29T01:05:59;99020.05;;;22.29;47.36
74881;BME280;63427;49.654;6.596;2023-07-29T01:08:20;99013.82;;;22.25;46.89
74881;BME280;63427;49.654;6.596;2023-07-29T01:10:45;99006.31;;;22.39;46.72
74881;BME280;63427;49.654;6.596;2023-07-29T01:13:10;99004.91;;;22.27;46.92
74881;BME280;63427;49.654;6.596;2023-07-29T01:15:33;99002.80;;;22.61;46.15
74881;BME280;63427;49.654;6.596;2023-07-29T01:17:56;98999.94;;;22.48;46.06
74881;BME280;63427;49.654;6.596;2023-07-29T01:20:20;99000.87;;;22.40;46.19
74881;BME280;63427;49.654;6.596;2023-07-29T01:22:44;99001.39;;;22.64;45.89
74881;BME280;63427;49.654;6.596;2023-07-29T01:25:10;99005.18;;;22.70;46.17
74881;BME280;63427;49.654;6.596;2023-07-29T01:27:35;98996.26;;;22.66;46.12
74881;BME280;63427;49.654;6.596;2023-07-29T01:30:01;98995.80;;;22.60;46.48
74881;BME280;63427;49.654;6.596;2023-07-29T01:32:29;98994.66;;;22.70;46.11
74881;BME280;63427;49.654;6.596;2023-07-29T01:34:56;98990.53;;;22.68;46.10
74881;BME280;63427;49.654;6.596;2023-07-29T01:37:19;98998.26;;;22.65;46.11
74881;BME280;63427;49.654;6.596;2023-07-29T01:39:42;98994.73;;;22.89;46.03
74881;BME280;63427;49.654;6.596;2023-07-29T01:42:07;98996.52;;;22.15;47.23
74881;BME280;63427;49.654;6.596;2023-07-29T01:44:31;99002.01;;;22.44;46.85
74881;BME280;63427;49.654;6.596;2023-07-29T01:46:56;98996.03;;;22.43;46.85
74881;BME280;63427;49.654;6.596;2023-07-29T01:49:21;98994.48;;;22.32;47.04
74881;BME280;63427;49.654;6.596;2023-07-29T01:51:46;98987.44;;;22.43;46.59
74881;BME280;63427;49.654;6.596;2023-07-29T01:54:11;98982.59;;;22.75;46.63
74881;BME280;63427;49.654;6.596;2023-07-29T01:56:37;98988.44;;;22.62;46.41
74881;BME280;63427;49.654;6.596;2023-07-29T01:59:02;98985.49;;;22.71;46.94
74881;BME280;63427;49.654;6.596;2023-07-29T02:01:27;98982.12;;;22.79;46.37
74881;BME280;63427;49.654;6.596;2023-07-29T02:03:52;98987.89;;;22.60;46.64
74881;BME280;63427;49.654;6.596;2023-07-29T02:06:17;98989.33;;;22.23;46.72
74881;BME280;63427;49.654;6.596;2023-07-29T02:08:42;98993.66;;;22.22;47.20
74881;BME280;63427;49.654;6.596;2023-07-29T02:11:07;98995.71;;;22.73;47.06
74881;BME280;63427;49.654;6.596;2023-07-29T02:13:32;99002.06;;;22.57;46.85
74881;BME280;63427;49.654;6.596;2023-07-29T02:15:58;98994.78;;;22.61;46.20
74881;BME280;63427;49.654;6.596;2023-07-29T02:18:24;98990.44;;;22.60;46.26
74881;BME280;63427;49.654;6.596;2023-07-29T02:20:49;98988.02;;;22.66;46.42
74881;BME280;63427;49.654;6.596;2023-07-29T02:23:14;98988.65;;;22.67;46.69
74881;BME280;63427;49.654;6.596;2023-07-29T02:25:39;98985.70;;;22.77;46.43
74881;BME280;63427;49.654;6.596;2023-07-29T02:28:04;98980.29;;;23.05;46.47
74881;BME280;63427;49.654;6.596;2023-07-29T02:30:29;98967.13;;;22.94;46.58
74881;BME280;63427;49.654;6.596;2023-07-29T02:32:54;98966.80;;;22.92;45.99
74881;BME280;63427;49.654;6.596;2023-07-29T02:35:19;98966.72;;;22.93;46.14
74881;BME280;63427;49.654;6.596;2023-07-29T02:37:44;98963.46;;;22.64;46.09
74881;BME280;63427;49.654;6.596;2023-07-29T02:40:11;98961.51;;;23.35;45.15
74881;BME280;63427;49.654;6.596;2023-07-29T02:42:35;98958.91;;;22.70;45.46
74881;BME280;63427;49.654;6.596;2023-07-29T02:45:00;98953.89;;;23.14;45.56
74881;BME280;63427;49.654;6.596;2023-07-29T02:47:25;98957.18;;;22.85;45.53
74881;BME280;63427;49.654;6.596;2023-07-29T02:49:50;98955.27;;;23.08;45.18
74881;BME280;63427;49.654;6.596;2023-07-29T02:52:15;98950.76;;;22.88;45.33
74881;BME280;63427;49.654;6.596;2023-07-29T02:54:40;98955.55;;;23.02;45.11
74881;BME280;63427;49.654;6.596;2023-07-29T02:57:05;98951.71;;;22.72;45.75
74881;BME280;63427;49.654;6.596;2023-07-29T02:59:30;98953.29;;;22.90;45.74
74881;BME280;63427;49.654;6.596;2023-07-29T03:01:55;98954.24;;;22.92;45.74
74881;BME280;63427;49.654;6.596;2023-07-29T03:04:20;98945.17;;;23.05;45.48
74881;BME280;63427;49.654;6.596;2023-07-29T03:06:45;98947.00;;;23.07;45.49
74881;BME280;63427;49.654;6.596;2023-07-29T03:09:11;98955.82;;;22.73;45.67
74881;BME280;63427;49.654;6.596;2023-07-29T03:11:36;98959.51;;;22.98;45.75
74881;BME280;63427;49.654;6.596;2023-07-29T03:14:01;98956.65;;;22.93;45.79
74881;BME280;63427;49.654;6.596;2023-07-29T03:16:26;98955.17;;;22.84;45.89
74881;BME280;63427;49.654;6.596;2023-07-29T03:18:51;98948.13;;;22.94;45.80
74881;BME280;63427;49.654;6.596;2023-07-29T03:21:16;98941.11;;;22.87;45.84
74881;BME280;63427;49.654;6.596;2023-07-29T03:23:41;98942.39;;;22.58;45.87
74881;BME280;63427;49.654;6.596;2023-07-29T03:26:07;98941.38;;;22.70;46.21
74881;BME280;63427;49.654;6.596;2023-07-29T03:28:32;98935.82;;;22.64;46.25
74881;BME280;63427;49.654;6.596;2023-07-29T03:30:57;98935.30;;;22.80;46.17
74881;BME280;63427;49.654;6.596;2023-07-29T03:33:22;98943.06;;;22.75;46.29
74881;BME280;63427;49.654;6.596;2023-07-29T03:35:47;98932.97;;;22.89;46.11
74881;BME280;63427;49.654;6.596;2023-07-29T03:38:12;98929.64;;;23.06;45.68
74881;BME280;63427;49.654;6.596;2023-07-29T03:40:37;98922.90;;;23.05;45.92
74881;BME280;63427;49.654;6.596;2023-07-29T03:43:02;98925.91;;;22.95;46.01
74881;BME280;63427;49.654;6.596;2023-07-29T03:45:27;98980.25;;;22.94;45.95
74881;BME280;63427;49.654;6.596;2023-07-29T03:47:52;99029.78;;;22.21;47.38
74881;BME280;63427;49.654;6.596;2023-07-29T03:50:17;98979.45;;;21.74;43.87
74881;BME280;63427;49.654;6.596;2023-07-29T03:52:42;98964.35;;;21.46;44.17
74881;BME280;63427;49.654;6.596;2023-07-29T03:55:08;98964.38;;;21.61;44.16
74881;BME280;63427;49.654;6.596;2023-07-29T03:57:33;98962.40;;;21.67;45.75
74881;BME280;63427;49.654;6.596;2023-07-29T03:59:58;98965.40;;;21.35;44.75
74881;BME280;63427;49.654;6.596;2023-07-29T04:02:23;98964.01;;;21.22;45.08
74881;BME280;63427;49.654;6.596;2023-07-29T04:04:48;98960.46;;;21.38;44.71
74881;BME280;63427;49.654;6.596;2023-07-29T04:07:14;98979.83;;;21.42;44.99
74881;BME280;63427;49.654;6.596;2023-07-29T04:09:38;98987.19;;;21.45;44.06
74881;BME280;63427;49.654;6.596;2023-07-29T04:12:04;98996.20;;;21.52;44.54
74881;BME280;63427;49.654;6.596;2023-07-29T04:14:28;99000.04;;;21.33;44.15
74881;BME280;63427;49.654;6.596;2023-07-29T04:16:59;98992.43;;;21.36;44.83
74881;BME280;63427;49.654;6.596;2023-07-29T04:19:19;98988.59;;;21.34;44.68
74881;BME280;63427;49.654;6.596;2023-07-29T04:21:44;98984.24;;;21.45;44.86
74881;BME280;63427;49.654;6.596;2023-07-29T04:24:09;98983.42;;;21.45;44.11
74881;BME280;63427;49.654;6.596;2023-07-29T04:26:34;98980.03;;;21.42;44.69
74881;BME280;63427;49.654;6.596;2023-07-29T04:28:59;98981.31;;;21.42;44.30
74881;BME280;63427;49.654;6.596;2023-07-29T04:31:24;98984.28;;;21.19;45.55
74881;BME280;63427;49.654;6.596;2023-07-29T04:33:50;98988.06;;;21.33;45.91
74881;BME280;63427;49.654;6.596;2023-07-29T04:36:15;98991.53;;;21.59;45.91
74881;BME280;63427;49.654;6.596;2023-07-29T04:38:40;98996.17;;;21.46;45.19
74881;BME280;63427;49.654;6.596;2023-07-29T04:41:05;99000.99;;;21.63;45.11
74881;BME280;63427;49.654;6.596;2023-07-29T04:43:31;98996.64;;;21.34;45.76
74881;BME280;63427;49.654;6.596;2023-07-29T04:45:55;98980.98;;;21.53;44.48
74881;BME280;63427;49.654;6.596;2023-07-29T04:48:20;98965.71;;;21.49;45.25
74881;BME280;63427;49.654;6.596;2023-07-29T04:50:46;98955.63;;;21.53;45.80
74881;BME280;63427;49.654;6.596;2023-07-29T04:53:11;98951.87;;;21.53;45.74
74881;BME280;63427;49.654;6.596;2023-07-29T04:55:36;98959.73;;;21.36;45.48
74881;BME280;63427;49.654;6.596;2023-07-29T04:58:01;98965.53;;;21.30;44.35
74881;BME280;63427;49.654;6.596;2023-07-29T05:00:26;98954.56;;;21.56;45.38
74881;BME280;63427;49.654;6.596;2023-07-29T05:02:51;98958.68;;;21.31;44.98
74881;BME280;63427;49.654;6.596;2023-07-29T05:05:16;98967.98;;;21.37;46.21
74881;BME280;63427;49.654;6.596;2023-07-29T05:07:42;98974.90;;;21.31;45.91
74881;BME280;63427;49.654;6.596;2023-07-29T05:10:08;98970.87;;;21.28;45.52
74881;BME280;63427;49.654;6.596;2023-07-29T05:12:32;98981.98;;;21.26;45.75
74881;BME280;63427;49.654;6.596;2023-07-29T05:14:57;99006.82;;;21.20;44.86
74881;BME280;63427;49.654;6.596;2023-07-29T05:17:22;99018.71;;;21.28;46.00
74881;BME280;63427;49.654;6.596;2023-07-29T05:19:47;99020.88;;;20.59;48.29
74881;BME280;63427;49.654;6.596;2023-07-29T05:22:12;99002.91;;;21.01;47.27
74881;BME280;63427;49.654;6.596;2023-07-29T05:24:37;98988.24;;;21.24;46.57
74881;BME280;63427;49.654;6.596;2023-07-29T05:27:03;98988.58;;;20.88;46.31
74881;BME280;63427;49.654;6.596;2023-07-29T05:29:28;98996.17;;;21.39;45.74
74881;BME280;63427;49.654;6.596;2023-07-29T05:31:53;99008.77;;;20.92;45.63
74881;BME280;63427;49.654;6.596;2023-07-29T05:34:18;99013.91;;;21.11;45.76
74881;BME280;63427;49.654;6.596;2023-07-29T05:36:43;99012.94;;;21.27;46.22
74881;BME280;63427;49.654;6.596;2023-07-29T05:39:08;99021.41;;;21.36;46.00
74881;BME280;63427;49.654;6.596;2023-07-29T05:41:34;99021.61;;;20.95;46.83
74881;BME280;63427;49.654;6.596;2023-07-29T05:43:59;99018.71;;;20.99;46.22
74881;BME280;63427;49.654;6.596;2023-07-29T05:46:24;99022.61;;;20.83;46.68
74881;BME280;63427;49.654;6.596;2023-07-29T05:48:49;99029.52;;;20.95;45.85
74881;BME280;63427;49.654;6.596;2023-07-29T05:51:14;99035.22;;;21.14;45.63
74881;BME280;63427;49.654;6.596;2023-07-29T05:53:39;99043.73;;;21.05;45.17
74881;BME280;63427;49.654;6.596;2023-07-29T05:56:04;99048.39;;;21.02;45.62
74881;BME280;63427;49.654;6.596;2023-07-29T05:58:30;99046.30;;;21.04;46.23
74881;BME280;63427;49.654;6.596;2023-07-29T06:00:55;99042.22;;;21.35;46.26
74881;BME280;63427;49.654;6.596;2023-07-29T06:03:20;99044.67;;;21.53;46.57
74881;BME280;63427;49.654;6.596;2023-07-29T06:05:45;99040.27;;;21.60;46.33
74881;BME280;63427;49.654;6.596;2023-07-29T06:08:10;99031.32;;;21.72;46.71
74881;BME280;63427;49.654;6.596;2023-07-29T06:10:36;99033.99;;;22.34;45.75
74881;BME280;63427;49.654;6.596;2023-07-29T06:13:01;99027.68;;;22.11;45.54
74881;BME280;63427;49.654;6.596;2023-07-29T06:15:26;99023.42;;;21.68;45.64
74881;BME280;63427;49.654;6.596;2023-07-29T06:17:51;99023.51;;;21.91;46.09
74881;BME280;63427;49.654;6.596;2023-07-29T06:20:16;99028.26;;;22.42;45.01
74881;BME280;63427;49.654;6.596;2023-07-29T06:22:41;99033.64;;;21.86;45.09
74881;BME280;63427;49.654;6.596;2023-07-29T06:25:07;99037.13;;;21.68;45.97
74881;BME280;63427;49.654;6.596;2023-07-29T06:27:31;99035.09;;;22.27;45.88
74881;BME280;63427;49.654;6.596;2023-07-29T06:29:57;99039.15;;;22.38;45.86
74881;BME280;63427;49.654;6.596;2023-07-29T06:32:22;99041.23;;;22.30;45.55
74881;BME280;63427;49.654;6.596;2023-07-29T06:34:47;99041.33;;;22.48;45.32
74881;BME280;63427;49.654;6.596;2023-07-29T06:37:12;99046.63;;;22.51;45.13
74881;BME280;63427;49.654;6.596;2023-07-29T06:39:37;99048.68;;;22.51;45.03
74881;BME280;63427;49.654;6.596;2023-07-29T06:42:03;99040.83;;;22.59;45.13
74881;BME280;63427;49.654;6.596;2023-07-29T06:44:27;99043.69;;;22.74;45.08
74881;BME280;63427;49.654;6.596;2023-07-29T06:46:53;99047.49;;;22.72;44.82
74881;BME280;63427;49.654;6.596;2023-07-29T06:49:19;99052.03;;;22.47;44.87
74881;BME280;63427;49.654;6.596;2023-07-29T06:51:43;99049.96;;;22.97;44.72
74881;BME280;63427;49.654;6.596;2023-07-29T06:54:08;99055.27;;;22.67;44.71
74881;BME280;63427;49.654;6.596;2023-07-29T06:56:33;99056.02;;;22.30;45.16
74881;BME280;63427;49.654;6.596;2023-07-29T06:58:58;99054.09;;;22.72;45.29
74881;BME280;63427;49.654;6.596;2023-07-29T07:01:23;99050.33;;;23.13;44.23
74881;BME280;63427;49.654;6.596;2023-07-29T07:03:48;99049.35;;;23.12;45.07
74881;BME280;63427;49.654;6.596;2023-07-29T07:06:14;99051.27;;;23.01;45.03
74881;BME280;63427;49.654;6.596;2023-07-29T07:08:38;99052.79;;;23.23;44.46
74881;BME280;63427;49.654;6.596;2023-07-29T07:11:03;99055.73;;;22.62;44.96
74881;BME280;63427;49.654;6.596;2023-07-29T07:13:28;99051.42;;;23.02;44.08
74881;BME280;63427;49.654;6.596;2023-07-29T07:15:54;99060.80;;;22.86;45.41
74881;BME280;63427;49.654;6.596;2023-07-29T07:18:19;99059.14;;;22.76;45.21
74881;BME280;63427;49.654;6.596;2023-07-29T07:20:48;99062.76;;;23.26;43.93
74881;BME280;63427;49.654;6.596;2023-07-29T07:23:09;99064.59;;;23.60;44.14
74881;BME280;63427;49.654;6.596;2023-07-29T07:25:34;99069.43;;;23.06;44.31
74881;BME280;63427;49.654;6.596;2023-07-29T07:27:59;99072.12;;;23.38;44.28
74881;BME280;63427;49.654;6.596;2023-07-29T07:30:24;99068.30;;;23.40;43.80
74881;BME280;63427;49.654;6.596;2023-07-29T07:32:49;99066.12;;;23.53;43.47
74881;BME280;63427;49.654;6.596;2023-07-29T07:35:14;99061.15;;;23.75;44.03
74881;BME280;63427;49.654;6.596;2023-07-29T07:37:39;99051.25;;;24.19;44.10
74881;BME280;63427;49.654;6.596;2023-07-29T07:40:06;99050.45;;;24.39;43.29
74881;BME280;63427;49.654;6.596;2023-07-29T07:42:29;99051.63;;;24.40;43.91
74881;BME280;63427;49.654;6.596;2023-07-29T07:44:54;99055.17;;;24.57;42.38
74881;BME280;63427;49.654;6.596;2023-07-29T07:47:19;99053.55;;;24.76;42.66
74881;BME280;63427;49.654;6.596;2023-07-29T07:49:44;99050.13;;;24.73;41.66
74881;BME280;63427;49.654;6.596;2023-07-29T07:52:09;99055.93;;;25.17;42.52
74881;BME280;63427;49.654;6.596;2023-07-29T07:54:34;99053.00;;;25.53;41.74
74881;BME280;63427;49.654;6.596;2023-07-29T07:56:59;99050.11;;;25.82;41.57
74881;BME280;63427;49.654;6.596;2023-07-29T07:59:25;99049.44;;;25.71;39.98
74881;BME280;63427;49.654;6.596;2023-07-29T08:01:51;99049.81;;;26.17;38.75
74881;BME280;63427;49.654;6.596;2023-07-29T08:04:17;99067.03;;;24.28;41.32
74881;BME280;63427;49.654;6.596;2023-07-29T08:06:43;99065.22;;;25.41;40.34
74881;BME280;63427;49.654;6.596;2023-07-29T08:09:08;99060.12;;;26.16;38.81
74881;BME280;63427;49.654;6.596;2023-07-29T08:11:34;99063.60;;;26.40;38.54
74881;BME280;63427;49.654;6.596;2023-07-29T08:14:01;99063.02;;;26.76;37.97
74881;BME280;63427;49.654;6.596;2023-07-29T08:16:26;99062.06;;;26.92;37.23
74881;BME280;63427;49.654;6.596;2023-07-29T08:18:52;99063.39;;;26.89;36.60
74881;BME280;63427;49.654;6.596;2023-07-29T08:21:18;99059.93;;;27.02;35.32
74881;BME280;63427;49.654;6.596;2023-07-29T08:23:43;99058.44;;;27.23;34.38
74881;BME280;63427;49.654;6.596;2023-07-29T08:26:09;99065.73;;;27.40;35.70
74881;BME280;63427;49.654;6.596;2023-07-29T08:28:36;99064.08;;;26.73;35.37
74881;BME280;63427;49.654;6.596;2023-07-29T08:31:01;99067.47;;;26.59;35.62
74881;BME280;63427;49.654;6.596;2023-07-29T08:33:27;99062.55;;;27.17;35.11
74881;BME280;63427;49.654;6.596;2023-07-29T08:35:53;99060.93;;;26.25;35.33
74881;BME280;63427;49.654;6.596;2023-07-29T08:38:18;99067.78;;;24.85;37.06
74881;BME280;63427;49.654;6.596;2023-07-29T08:40:50;99065.28;;;25.99;35.90
74881;BME280;63427;49.654;6.596;2023-07-29T08:43:11;99064.04;;;25.90;34.14
74881;BME280;63427;49.654;6.596;2023-07-29T08:45:36;99066.60;;;26.12;34.37
74881;BME280;63427;49.654;6.596;2023-07-29T08:50:27;99066.98;;;24.33;38.75
74881;BME280;63427;49.654;6.596;2023-07-29T08:52:53;99064.64;;;25.80;35.59
74881;BME280;63427;49.654;6.596;2023-07-29T08:55:20;99057.45;;;26.60;33.20
74881;BME280;63427;49.654;6.596;2023-07-29T08:57:45;99062.27;;;27.03;32.37
74881;BME280;63427;49.654;6.596;2023-07-29T09:00:11;99057.32;;;26.90;33.13
74881;BME280;63427;49.654;6.596;2023-07-29T09:02:36;99053.82;;;27.64;31.31
74881;BME280;63427;49.654;6.596;2023-07-29T09:05:02;99057.87;;;27.85;31.90
74881;BME280;63427;49.654;6.596;2023-07-29T09:07:29;99063.57;;;28.27;30.76
74881;BME280;63427;49.654;6.596;2023-07-29T09:09:53;99069.65;;;28.13;30.74
74881;BME280;63427;49.654;6.596;2023-07-29T09:12:19;99072.56;;;28.60;31.73
74881;BME280;63427;49.654;6.596;2023-07-29T09:14:45;99079.83;;;28.15;31.17
74881;BME280;63427;49.654;6.596;2023-07-29T09:17:10;99082.32;;;28.51;29.99
74881;BME280;63427;49.654;6.596;2023-07-29T09:19:36;99083.99;;;28.73;29.67
74881;BME280;63427;49.654;6.596;2023-07-29T09:22:03;99078.01;;;29.15;28.77
74881;BME280;63427;49.654;6.596;2023-07-29T09:24:27;99076.09;;;29.52;28.92
74881;BME280;63427;49.654;6.596;2023-07-29T09:26:53;99088.09;;;29.45;29.10
74881;BME280;63427;49.654;6.596;2023-07-29T09:29:22;99096.23;;;28.38;28.05
74881;BME280;63427;49.654;6.596;2023-07-29T09:31:44;99091.40;;;28.86;27.39
74881;BME280;63427;49.654;6.596;2023-07-29T09:34:15;99089.90;;;28.70;27.97
74881;BME280;63427;49.654;6.596;2023-07-29T09:36:36;99087.19;;;28.61;27.07
74881;BME280;63427;49.654;6.596;2023-07-29T09:39:02;99088.64;;;29.48;27.24
74881;BME280;63427;49.654;6.596;2023-07-29T09:41:29;99090.23;;;29.07;26.82
74881;BME280;63427;49.654;6.596;2023-07-29T09:43:57;99091.44;;;27.88;28.12
74881;BME280;63427;49.654;6.596;2023-07-29T09:46:19;99091.54;;;28.48;28.21
74881;BME280;63427;49.654;6.596;2023-07-29T09:48:44;99092.54;;;28.86;27.65
74881;BME280;63427;49.654;6.596;2023-07-29T09:51:11;99102.04;;;29.35;27.13
74881;BME280;63427;49.654;6.596;2023-07-29T09:53:40;99098.06;;;29.90;27.28
74881;BME280;63427;49.654;6.596;2023-07-29T09:56:03;99103.61;;;28.19;28.33
74881;BME280;63427;49.654;6.596;2023-07-29T09:58:27;99104.12;;;28.01;28.79
74881;BME280;63427;49.654;6.596;2023-07-29T10:00:53;99103.68;;;27.45;29.32
74881;BME280;63427;49.654;6.596;2023-07-29T10:03:19;99101.15;;;28.73;28.01
74881;BME280;63427;49.654;6.596;2023-07-29T10:05:46;99104.86;;;28.93;27.58
74881;BME280;63427;49.654;6.596;2023-07-29T10:08:16;99103.66;;;28.24;28.14
74881;BME280;63427;49.654;6.596;2023-07-29T10:10:35;99105.32;;;28.73;27.64
74881;BME280;63427;49.654;6.596;2023-07-29T10:13:01;99099.14;;;28.85;26.82
74881;BME280;63427;49.654;6.596;2023-07-29T10:15:27;99095.14;;;28.65;27.47
74881;BME280;63427;49.654;6.596;2023-07-29T10:17:54;99095.62;;;29.07;26.79
74881;BME280;63427;49.654;6.596;2023-07-29T10:20:18;99094.06;;;29.29;26.40
74881;BME280;63427;49.654;6.596;2023-07-29T10:22:47;99097.75;;;28.77;26.63
74881;BME280;63427;49.654;6.596;2023-07-29T10:25:16;99104.65;;;29.43;26.91
74881;BME280;63427;49.654;6.596;2023-07-29T10:27:43;99103.87;;;29.95;26.67
74881;BME280;63427;49.654;6.596;2023-07-29T10:30:02;99097.83;;;30.17;26.22
74881;BME280;63427;49.654;6.596;2023-07-29T10:32:27;99098.34;;;30.21;26.20
74881;BME280;63427;49.654;6.596;2023-07-29T10:34:53;99109.73;;;29.29;26.37
74881;BME280;63427;49.654;6.596;2023-07-29T10:37:18;99108.73;;;29.98;26.25
74881;BME280;63427;49.654;6.596;2023-07-29T10:39:52;99107.77;;;30.35;26.35
74881;BME280;63427;49.654;6.596;2023-07-29T10:42:10;99101.74;;;30.56;26.59
74881;BME280;63427;49.654;6.596;2023-07-29T10:44:46;99093.92;;;31.15;26.06
74881;BME280;63427;49.654;6.596;2023-07-29T10:47:10;99103.30;;;30.68;25.62
74881;BME280;63427;49.654;6.596;2023-07-29T10:49:26;99100.49;;;30.12;24.81
74881;BME280;63427;49.654;6.596;2023-07-29T10:51:53;99103.26;;;29.65;25.08
74881;BME280;63427;49.654;6.596;2023-07-29T10:54:17;99097.21;;;30.03;25.27
74881;BME280;63427;49.654;6.596;2023-07-29T10:56:47;99098.79;;;30.62;24.85
74881;BME280;63427;49.654;6.596;2023-07-29T11:01:35;99100.95;;;30.71;22.20
74881;BME280;63427;49.654;6.596;2023-07-29T11:06:31;99097.50;;;30.24;23.31
74881;BME280;63427;49.654;6.596;2023-07-29T11:08:51;99095.37;;;30.97;24.21
74881;BME280;63427;49.654;6.596;2023-07-29T11:11:17;99097.86;;;31.74;22.74
74881;BME280;63427;49.654;6.596;2023-07-29T11:13:43;99094.82;;;31.83;21.81
74881;BME280;63427;49.654;6.596;2023-07-29T11:16:10;99088.01;;;32.25;21.40
74881;BME280;63427;49.654;6.596;2023-07-29T11:18:35;99086.04;;;32.90;20.98
74881;BME280;63427;49.654;6.596;2023-07-29T11:21:00;99088.12;;;33.04;20.78
74881;BME280;63427;49.654;6.596;2023-07-29T11:23:29;99088.06;;;32.42;20.90
74881;BME280;63427;49.654;6.596;2023-07-29T11:25:50;99082.61;;;32.49;22.08
74881;BME280;63427;49.654;6.596;2023-07-29T11:28:16;99083.03;;;33.78;20.63
74881;BME280;63427;49.654;6.596;2023-07-29T11:30:42;99080.98;;;31.60;21.56
74881;BME280;63427;49.654;6.596;2023-07-29T11:33:07;99074.19;;;32.35;20.98
74881;BME280;63427;49.654;6.596;2023-07-29T11:35:33;99069.36;;;31.82;21.44
74881;BME280;63427;49.654;6.596;2023-07-29T11:37:59;99074.71;;;31.07;22.61
74881;BME280;63427;49.654;6.596;2023-07-29T11:40:24;99076.81;;;32.75;21.47
74881;BME280;63427;49.654;6.596;2023-07-29T11:42:51;99081.86;;;32.71;20.73
74881;BME280;63427;49.654;6.596;2023-07-29T11:45:15;99081.71;;;32.38;21.88
74881;BME280;63427;49.654;6.596;2023-07-29T11:47:40;99083.53;;;33.46;20.44
74881;BME280;63427;49.654;6.596;2023-07-29T11:50:07;99079.47;;;34.32;20.01
74881;BME280;63427;49.654;6.596;2023-07-29T11:52:32;99085.90;;;33.97;20.37
74881;BME280;63427;49.654;6.596;2023-07-29T11:54:57;99087.33;;;33.94;19.72
74881;BME280;63427;49.654;6.596;2023-07-29T11:57:23;99084.61;;;33.56;19.63
74881;BME280;63427;49.654;6.596;2023-07-29T11:59:48;99078.70;;;34.16;19.25
74881;BME280;63427;49.654;6.596;2023-07-29T12:02:15;99073.42;;;33.63;19.77
74881;BME280;63427;49.654;6.596;2023-07-29T12:04:40;99066.98;;;34.35;18.61
74881;BME280;63427;49.654;6.596;2023-07-29T12:07:05;99064.64;;;34.96;18.79
74881;BME280;63427;49.654;6.596;2023-07-29T12:09:30;99072.68;;;31.29;20.26
74881;BME280;63427;49.654;6.596;2023-07-29T12:11:56;99064.70;;;32.68;19.87
74881;BME280;63427;49.654;6.596;2023-07-29T12:14:21;99061.29;;;32.20;20.48
74881;BME280;63427;49.654;6.596;2023-07-29T12:16:48;99069.72;;;33.59;19.55
74881;BME280;63427;49.654;6.596;2023-07-29T12:19:12;99059.80;;;33.45;19.37
74881;BME280;63427;49.654;6.596;2023-07-29T12:21:38;99055.69;;;33.08;19.52
74881;BME280;63427;49.654;6.596;2023-07-29T12:24:04;99050.59;;;33.47;19.54
74881;BME280;63427;49.654;6.596;2023-07-29T12:26:29;99048.75;;;33.55;19.85
74881;BME280;63427;49.654;6.596;2023-07-29T12:28:54;99059.09;;;33.45;19.19
74881;BME280;63427;49.654;6.596;2023-07-29T12:31:20;99047.49;;;34.85;18.98
74881;BME280;63427;49.654;6.596;2023-07-29T12:33:45;99048.68;;;34.55;19.36
74881;BME280;63427;49.654;6.596;2023-07-29T12:36:11;99056.10;;;34.56;18.52
74881;BME280;63427;49.654;6.596;2023-07-29T12:38:36;99055.02;;;34.10;19.84
74881;BME280;63427;49.654;6.596;2023-07-29T12:41:02;99048.60;;;35.14;19.38
74881;BME280;63427;49.654;6.596;2023-07-29T12:43:28;99048.35;;;35.16;18.18
74881;BME280;63427;49.654;6.596;2023-07-29T12:45:53;99045.00;;;34.86;18.82
74881;BME280;63427;49.654;6.596;2023-07-29T12:48:18;99045.84;;;35.06;19.06
74881;BME280;63427;49.654;6.596;2023-07-29T12:50:44;99044.60;;;35.33;18.80
74881;BME280;63427;49.654;6.596;2023-07-29T12:53:10;99040.38;;;34.45;19.12
74881;BME280;63427;49.654;6.596;2023-07-29T12:55:35;99040.49;;;34.70;19.65